Terminal Aerodrome Forecast
Issued by NWS

Home | Current Version | Previous Version | Graphics & Text | Print | Product List | Glossary On
Versions: 1 2 3 4 5 6 7 8 9 10 11 12 13 14 15 16 17 18 19 20 21 22 23
000
FTUS43 KABR 181100
TAFMBG
TAF
KMBG 181140Z 1812/1912 07006KT P6SM OVC090
     FM181500 10006KT P6SM OVC090
     FM190000 02006KT P6SM -SHRA SCT025 BKN040 OVC070
     FM190300 29002KT P6SM OVC025=

USA.gov is the U.S. government's official web portal to all federal, state and local government web resources and services.